createdAt,value
2019-03-15T00:01:42.308Z,1.17
2019-03-15T00:04:11.716Z,1.16
2019-03-15T00:06:41.031Z,1.13
2019-03-15T00:09:10.472Z,1.14
2019-03-15T00:11:39.855Z,1.15
2019-03-15T00:14:09.231Z,1.19
2019-03-15T00:16:38.569Z,1.14
2019-03-15T00:19:07.956Z,1.11
2019-03-15T00:21:37.356Z,1.13
2019-03-15T00:24:06.732Z,1.13
2019-03-15T00:26:36.176Z,1.18
2019-03-15T00:29:05.531Z,1.25
2019-03-15T00:31:34.949Z,1.14
2019-03-15T00:34:04.376Z,1.17
2019-03-15T00:36:33.699Z,1.13
2019-03-15T00:39:03.142Z,1.11
2019-03-15T00:41:32.541Z,1.12
2019-03-15T00:44:01.988Z,1.10
2019-03-15T00:46:31.426Z,1.12
2019-03-15T00:49:00.794Z,1.20
2019-03-15T00:51:30.121Z,1.18
2019-03-15T00:53:59.510Z,1.18
2019-03-15T00:56:28.940Z,1.18
2019-03-15T00:58:58.338Z,1.23
2019-03-15T01:01:27.715Z,1.20
2019-03-15T01:03:57.113Z,1.14
2019-03-15T01:06:26.498Z,1.11
2019-03-15T01:08:55.924Z,1.15
2019-03-15T01:11:25.307Z,1.15
2019-03-15T01:13:54.688Z,1.17
2019-03-15T01:16:24.017Z,1.22
2019-03-15T01:18:53.452Z,1.27
2019-03-15T01:21:22.847Z,1.29
2019-03-15T01:23:52.228Z,1.30
2019-03-15T01:26:21.672Z,1.29
2019-03-15T01:28:51.007Z,1.27
2019-03-15T01:31:20.363Z,1.25
2019-03-15T01:33:50.081Z,1.19
2019-03-15T01:36:19.658Z,1.27
2019-03-15T01:38:49.035Z,1.22
2019-03-15T01:41:18.375Z,1.17
2019-03-15T01:43:47.766Z,1.21
2019-03-15T01:46:17.174Z,1.21
2019-03-15T01:48:46.518Z,1.25
2019-03-15T01:51:15.894Z,1.23
2019-03-15T01:53:45.263Z,1.22
2019-03-15T01:56:14.625Z,1.25
2019-03-15T01:58:44.262Z,1.28
2019-03-15T02:01:13.730Z,1.20
2019-03-15T02:03:43.187Z,1.17
2019-03-15T02:06:12.560Z,1.18
2019-03-15T02:08:41.939Z,1.26
2019-03-15T02:11:11.325Z,1.26
2019-03-15T02:13:40.672Z,1.28
2019-03-15T02:16:10.086Z,1.29
2019-03-15T02:18:39.427Z,1.32
2019-03-15T02:21:08.754Z,1.37
2019-03-15T02:23:38.140Z,1.41
2019-03-15T02:26:07.863Z,1.41
2019-03-15T02:28:37.201Z,1.40
2019-03-15T02:31:06.651Z,1.39
2019-03-15T02:33:35.975Z,1.29
2019-03-15T02:36:05.374Z,1.27
2019-03-15T02:38:34.763Z,1.21
2019-03-15T02:41:05.035Z,1.25
2019-03-15T02:43:34.647Z,1.27
2019-03-15T02:46:04.091Z,1.26
2019-03-15T02:48:33.425Z,1.31
2019-03-15T02:51:02.769Z,1.32
2019-03-15T02:53:32.196Z,1.37
2019-03-15T02:56:01.666Z,1.38
2019-03-15T02:58:31.097Z,1.39
2019-03-15T03:01:00.421Z,1.38
2019-03-15T03:03:29.931Z,1.34
2019-03-15T03:05:59.239Z,0.63
2019-03-15T03:08:28.656Z,1.20
2019-03-15T03:10:58.031Z,1.25
2019-03-15T03:13:27.392Z,1.21
2019-03-15T03:15:56.787Z,1.25
2019-03-15T03:18:26.135Z,1.27
2019-03-15T03:20:55.524Z,1.24
2019-03-15T03:23:24.907Z,1.29
2019-03-15T03:25:54.389Z,1.25
2019-03-15T03:28:23.727Z,1.28
2019-03-15T03:30:53.047Z,1.28
2019-03-15T03:33:22.409Z,1.34
2019-03-15T03:35:51.797Z,1.33
2019-03-15T03:38:21.212Z,1.35
2019-03-15T03:40:50.552Z,1.37
2019-03-15T03:43:19.970Z,1.27
2019-03-15T03:45:49.364Z,1.25
2019-03-15T03:48:18.823Z,1.31
2019-03-15T03:50:48.204Z,1.32
2019-03-15T03:53:17.708Z,1.31
2019-03-15T03:55:47.029Z,1.28
2019-03-15T03:58:16.383Z,1.34
2019-03-15T04:00:45.825Z,1.28
2019-03-15T04:03:15.494Z,1.35
2019-03-15T04:05:45.108Z,1.33
2019-03-15T04:08:14.736Z,1.32
2019-03-15T04:10:44.049Z,1.32
2019-03-15T04:13:13.414Z,1.31
2019-03-15T04:15:42.837Z,1.36
2019-03-15T04:18:12.412Z,1.40
2019-03-15T04:20:42.475Z,1.44
2019-03-15T04:23:11.976Z,1.45
2019-03-15T04:25:41.282Z,1.42
2019-03-15T04:28:10.630Z,1.37
2019-03-15T04:30:40.072Z,1.40
2019-03-15T04:33:09.456Z,1.38
2019-03-15T04:35:38.914Z,1.30
2019-03-15T04:38:08.254Z,1.33
2019-03-15T04:40:37.661Z,1.28
2019-03-15T04:43:07.029Z,1.30
2019-03-15T04:45:36.462Z,1.29
2019-03-15T04:48:05.763Z,1.33
2019-03-15T04:50:35.125Z,1.34
2019-03-15T04:53:04.620Z,1.34
2019-03-15T04:55:34.010Z,1.28
2019-03-15T04:58:03.505Z,1.28
2019-03-15T05:00:32.787Z,1.26
2019-03-15T05:03:02.196Z,1.29
2019-03-15T05:05:31.667Z,1.33
2019-03-15T05:08:01.116Z,1.36
2019-03-15T05:10:30.495Z,1.42
2019-03-15T05:12:59.895Z,1.46
2019-03-15T05:15:29.368Z,1.38
2019-03-15T05:17:58.872Z,1.35
2019-03-15T05:20:28.460Z,1.35
2019-03-15T05:22:57.827Z,1.41
2019-03-15T05:25:29.675Z,1.41
2019-03-15T05:27:58.513Z,1.39
2019-03-15T05:30:27.837Z,1.33
2019-03-15T05:32:57.261Z,1.29
2019-03-15T05:35:26.653Z,1.24
2019-03-15T05:37:56.030Z,0.67
2019-03-15T05:40:25.344Z,1.31
2019-03-15T05:42:54.815Z,1.38
2019-03-15T05:45:24.234Z,1.45
2019-03-15T05:47:53.640Z,1.38
2019-03-15T05:50:23.004Z,1.44
2019-03-15T05:52:52.390Z,1.48
2019-03-15T05:55:21.784Z,1.45
2019-03-15T05:57:51.163Z,1.42
2019-03-15T06:00:20.650Z,1.47
2019-03-15T06:02:49.998Z,1.52
2019-03-15T06:05:19.371Z,0.85
2019-03-15T06:07:48.942Z,1.52
2019-03-15T06:10:18.353Z,1.44
2019-03-15T06:12:47.799Z,1.43
2019-03-15T06:15:17.172Z,1.45
2019-03-15T06:17:46.602Z,1.52
2019-03-15T06:20:15.995Z,1.46
2019-03-15T06:22:45.386Z,1.53
2019-03-15T06:25:14.739Z,1.54
2019-03-15T06:27:44.147Z,1.58
2019-03-15T06:30:13.554Z,1.48
2019-03-15T06:32:42.929Z,1.59
2019-03-15T06:35:12.552Z,1.61
2019-03-15T06:37:42.028Z,1.66
2019-03-15T06:40:13.643Z,1.71
2019-03-15T06:42:43.053Z,1.75
2019-03-15T06:45:12.679Z,1.74
2019-03-15T06:47:42.039Z,1.79
2019-03-15T06:50:11.827Z,1.82
2019-03-15T06:52:41.244Z,1.79
2019-03-15T06:55:10.806Z,1.87
2019-03-15T06:57:40.236Z,1.93
2019-03-15T07:00:10.048Z,2.06
2019-03-15T07:02:39.405Z,2.01
2019-03-15T07:05:11.873Z,1.88
2019-03-15T07:07:40.263Z,1.30
2019-03-15T07:10:09.815Z,1.95
2019-03-15T07:12:40.395Z,1.96
2019-03-15T07:15:10.436Z,2.08
2019-03-15T07:17:39.831Z,2.19
2019-03-15T07:20:09.879Z,2.30
2019-03-15T07:22:39.294Z,2.40
2019-03-15T07:25:09.026Z,2.32
2019-03-15T07:27:38.372Z,2.51
2019-03-15T07:30:09.043Z,2.67
2019-03-15T07:32:38.608Z,2.71
2019-03-15T07:35:07.928Z,2.75
2019-03-15T07:37:37.334Z,2.79
2019-03-15T07:40:07.272Z,2.72
2019-03-15T07:42:36.649Z,2.59
2019-03-15T07:45:06.326Z,2.69
2019-03-15T07:47:35.780Z,2.66
2019-03-15T07:50:05.642Z,2.78
2019-03-15T07:52:35.124Z,2.85
2019-03-15T07:55:04.686Z,2.98
2019-03-15T07:57:34.072Z,3.09
2019-03-15T08:00:03.547Z,3.23
2019-03-15T08:02:33.209Z,3.25
2019-03-15T08:05:02.534Z,3.33
2019-03-15T08:07:36.553Z,3.57
2019-03-15T08:10:03.432Z,3.82
2019-03-15T08:12:33.280Z,3.96
2019-03-15T08:15:02.660Z,4.09
2019-03-15T08:17:32.592Z,4.17
2019-03-15T08:20:02.230Z,4.33
2019-03-15T08:22:31.762Z,4.54
2019-03-15T08:25:01.158Z,4.53
2019-03-15T08:27:30.516Z,4.54
2019-03-15T08:30:00.405Z,4.58
2019-03-15T08:32:29.834Z,4.46
2019-03-15T08:34:59.163Z,4.60
2019-03-15T08:37:28.524Z,4.62
2019-03-15T08:39:57.890Z,4.46
2019-03-15T08:42:27.250Z,4.40
2019-03-15T08:44:56.667Z,4.72
2019-03-15T08:47:26.023Z,4.87
2019-03-15T08:49:55.417Z,4.60
2019-03-15T08:52:24.753Z,4.25
2019-03-15T08:55:04.710Z,4.00
2019-03-15T08:57:25.422Z,4.28
2019-03-15T08:59:57.761Z,4.13
2019-03-15T09:02:26.543Z,3.83
2019-03-15T09:04:55.923Z,4.14
2019-03-15T09:07:25.275Z,4.31
2019-03-15T09:09:54.682Z,4.64
2019-03-15T09:12:25.187Z,4.97
2019-03-15T09:14:54.684Z,4.99
2019-03-15T09:17:24.118Z,4.75
2019-03-15T09:19:53.589Z,4.67
2019-03-15T09:22:22.942Z,4.65
2019-03-15T09:24:52.346Z,4.61
2019-03-15T09:27:21.875Z,4.74
2019-03-15T09:29:51.266Z,4.87
2019-03-15T09:32:20.639Z,4.93
2019-03-15T09:34:50.017Z,4.93
2019-03-15T09:37:19.492Z,4.62
2019-03-15T09:39:49.045Z,4.62
2019-03-15T09:42:18.490Z,4.64
2019-03-15T09:44:47.886Z,4.68
2019-03-15T09:47:17.304Z,4.59
2019-03-15T09:49:46.676Z,4.48
2019-03-15T09:52:16.129Z,4.33
2019-03-15T09:54:45.600Z,4.56
2019-03-15T09:57:14.983Z,4.51
2019-03-15T09:59:44.417Z,4.68
2019-03-15T10:02:13.765Z,4.82
2019-03-15T10:04:43.302Z,4.60
2019-03-15T10:07:12.832Z,4.70
2019-03-15T10:09:46.226Z,4.90
2019-03-15T10:12:13.278Z,4.96
2019-03-15T10:14:42.712Z,4.94
2019-03-15T10:17:12.094Z,5.05
2019-03-15T10:19:41.583Z,4.99
2019-03-15T10:22:10.957Z,4.98
2019-03-15T10:24:40.300Z,4.78
2019-03-15T10:27:09.653Z,4.66
2019-03-15T10:29:39.069Z,4.52
2019-03-15T10:32:08.443Z,4.46
2019-03-15T10:34:37.809Z,4.35
2019-03-15T10:37:07.224Z,4.36
2019-03-15T10:39:36.666Z,4.15
2019-03-15T10:42:06.108Z,4.16
2019-03-15T10:44:35.513Z,4.21
2019-03-15T10:47:04.929Z,4.36
2019-03-15T10:49:34.546Z,4.37
2019-03-15T10:52:04.006Z,4.24
2019-03-15T10:54:33.455Z,4.43
2019-03-15T10:57:02.921Z,4.59
2019-03-15T10:59:32.360Z,4.67
2019-03-15T11:02:01.966Z,4.60
2019-03-15T11:04:31.359Z,4.66
2019-03-15T11:07:00.794Z,4.74
2019-03-15T11:09:30.127Z,4.87
2019-03-15T11:11:59.582Z,4.84
2019-03-15T11:14:28.979Z,4.69
2019-03-15T11:16:58.369Z,4.26
2019-03-15T11:19:27.869Z,4.14
2019-03-15T11:21:57.225Z,4.12
2019-03-15T11:24:26.588Z,4.35
2019-03-15T11:26:56.056Z,4.39
2019-03-15T11:29:25.436Z,4.51
2019-03-15T11:31:54.781Z,4.66
2019-03-15T11:34:24.282Z,4.70
2019-03-15T11:36:58.566Z,4.82
2019-03-15T11:39:24.694Z,4.57
2019-03-15T11:41:54.083Z,4.66
2019-03-15T11:44:23.448Z,4.42
2019-03-15T11:46:53.074Z,4.31
2019-03-15T11:49:22.576Z,4.21
2019-03-15T11:51:51.995Z,4.19
2019-03-15T11:54:21.360Z,4.39
2019-03-15T11:56:51.057Z,4.36
2019-03-15T11:59:20.339Z,4.18
2019-03-15T12:02:03.170Z,4.25
2019-03-15T12:04:20.736Z,4.10
2019-03-15T12:06:50.220Z,3.95
2019-03-15T12:09:19.733Z,4.00
2019-03-15T12:11:49.079Z,3.99
2019-03-15T12:14:18.733Z,3.94
2019-03-15T12:16:48.422Z,4.00
2019-03-15T12:19:17.923Z,3.88
2019-03-15T12:21:47.529Z,3.68
2019-03-15T12:24:17.057Z,3.53
2019-03-15T12:26:46.595Z,3.63
2019-03-15T12:29:15.966Z,3.67
2019-03-15T12:31:45.524Z,3.71
2019-03-15T12:34:14.945Z,3.78
2019-03-15T12:36:44.357Z,3.84
2019-03-15T12:39:13.714Z,4.05
2019-03-15T12:41:43.092Z,4.16
2019-03-15T12:44:12.599Z,4.59
2019-03-15T12:46:41.926Z,4.85
2019-03-15T12:49:11.362Z,5.15
2019-03-15T12:51:40.767Z,5.32
2019-03-15T12:54:10.236Z,5.42
2019-03-15T12:56:52.945Z,5.46
2019-03-15T12:59:10.952Z,5.35
2019-03-15T13:01:40.417Z,5.30
2019-03-15T13:04:09.850Z,5.21
2019-03-15T13:06:39.393Z,5.02
2019-03-15T13:09:08.765Z,5.08
2019-03-15T13:11:38.222Z,5.00
2019-03-15T13:14:07.807Z,5.03
2019-03-15T13:16:37.151Z,4.95
2019-03-15T13:19:06.514Z,4.34
2019-03-15T13:21:35.902Z,4.16
2019-03-15T13:24:05.281Z,4.29
2019-03-15T13:26:34.679Z,4.26
2019-03-15T13:29:04.234Z,4.29
2019-03-15T13:31:33.759Z,4.14
2019-03-15T13:34:03.150Z,3.71
2019-03-15T13:36:32.684Z,3.78
2019-03-15T13:39:02.113Z,3.51
2019-03-15T13:41:31.520Z,3.44
2019-03-15T13:44:00.881Z,3.52
2019-03-15T13:46:30.245Z,3.55
2019-03-15T13:48:59.600Z,3.43
2019-03-15T13:51:29.152Z,3.52
2019-03-15T13:53:58.582Z,3.55
2019-03-15T13:56:27.970Z,3.69
2019-03-15T13:58:57.781Z,3.81
2019-03-15T14:01:27.199Z,3.80
2019-03-15T14:03:56.662Z,3.80
2019-03-15T14:06:26.188Z,3.68
2019-03-15T14:08:55.645Z,3.50
2019-03-15T14:11:25.024Z,3.49
2019-03-15T14:13:54.571Z,3.48
2019-03-15T14:16:23.958Z,3.07
2019-03-15T14:18:53.400Z,3.31
2019-03-15T14:21:22.756Z,3.45
2019-03-15T14:23:52.177Z,3.54
2019-03-15T14:26:21.651Z,3.48
2019-03-15T14:28:51.108Z,3.29
2019-03-15T14:31:21.743Z,3.33
2019-03-15T14:33:51.319Z,3.38
2019-03-15T14:36:20.619Z,3.38
2019-03-15T14:38:50.099Z,3.38
2019-03-15T14:41:19.575Z,3.32
2019-03-15T14:43:49.202Z,3.32
2019-03-15T14:46:18.617Z,3.36
2019-03-15T14:48:48.018Z,3.38
2019-03-15T14:51:17.386Z,3.36
2019-03-15T14:53:46.858Z,3.36
2019-03-15T14:56:16.211Z,3.31
2019-03-15T14:58:45.567Z,3.28
2019-03-15T15:01:14.919Z,3.09
2019-03-15T15:03:44.346Z,3.00
2019-03-15T15:06:13.874Z,2.99
2019-03-15T15:08:43.228Z,3.12
2019-03-15T15:11:12.753Z,3.10
2019-03-15T15:13:42.353Z,3.17
2019-03-15T15:16:11.705Z,3.02
2019-03-15T15:18:41.110Z,3.07
2019-03-15T15:21:10.529Z,3.07
2019-03-15T15:23:39.968Z,3.05
2019-03-15T15:26:09.378Z,2.97
2019-03-15T15:28:39.617Z,2.89
2019-03-15T15:31:09.015Z,2.83
2019-03-15T15:33:38.402Z,2.79
2019-03-15T15:36:07.793Z,2.78
2019-03-15T15:38:37.251Z,2.80
2019-03-15T15:41:06.627Z,2.72
2019-03-15T15:43:36.118Z,2.70
2019-03-15T15:46:05.540Z,2.68
2019-03-15T15:48:35.095Z,2.74
2019-03-15T15:51:04.454Z,2.74
2019-03-15T15:53:33.890Z,2.72
2019-03-15T15:56:03.434Z,2.60
2019-03-15T15:58:32.857Z,2.57
2019-03-15T16:01:02.266Z,2.61
2019-03-15T16:03:31.674Z,2.62
2019-03-15T16:06:01.316Z,2.63
2019-03-15T16:08:30.946Z,2.60
2019-03-15T16:11:00.379Z,2.60
2019-03-15T16:13:29.720Z,2.57
2019-03-15T16:15:59.146Z,2.52
2019-03-15T16:18:28.593Z,2.44
2019-03-15T16:20:57.927Z,2.38
2019-03-15T16:23:30.180Z,2.40
2019-03-15T16:25:58.662Z,2.44
2019-03-15T16:28:31.839Z,2.44
2019-03-15T16:30:59.267Z,2.40
2019-03-15T16:33:28.637Z,2.28
2019-03-15T16:35:58.142Z,2.19
2019-03-15T16:38:27.591Z,2.20
2019-03-15T16:40:57.003Z,2.23
2019-03-15T16:43:26.436Z,2.21
2019-03-15T16:45:55.850Z,2.12
2019-03-15T16:48:25.338Z,2.01
2019-03-15T16:50:54.730Z,1.90
2019-03-15T16:53:24.207Z,1.92
2019-03-15T16:55:53.793Z,1.89
2019-03-15T16:58:23.174Z,1.84
2019-03-15T17:00:52.400Z,1.80
2019-03-15T17:03:21.875Z,1.80
2019-03-15T17:05:51.446Z,1.87
2019-03-15T17:08:20.860Z,1.84
2019-03-15T17:10:50.322Z,1.84
2019-03-15T17:13:19.689Z,1.84
2019-03-15T17:15:49.063Z,1.82
2019-03-15T17:18:18.425Z,1.77
2019-03-15T17:20:47.819Z,1.79
2019-03-15T17:23:17.416Z,1.72
2019-03-15T17:25:46.825Z,1.69
2019-03-15T17:28:16.318Z,1.66
2019-03-15T17:30:45.861Z,1.65
2019-03-15T17:33:15.460Z,1.53
2019-03-15T17:35:44.980Z,1.58
2019-03-15T17:38:14.356Z,1.53
2019-03-15T17:40:43.819Z,1.54
2019-03-15T17:43:13.266Z,1.57
2019-03-15T17:45:42.692Z,1.62
2019-03-15T17:48:12.108Z,1.66
2019-03-15T17:50:41.609Z,1.65
2019-03-15T17:53:11.316Z,1.67
2019-03-15T17:55:40.925Z,1.74
2019-03-15T17:58:10.330Z,1.78
2019-03-15T18:00:42.129Z,1.80
2019-03-15T18:03:20.490Z,1.83
2019-03-15T18:05:42.868Z,1.84
2019-03-15T18:08:12.325Z,1.84
2019-03-15T18:10:41.940Z,1.86
2019-03-15T18:13:11.401Z,1.89
2019-03-15T18:15:40.893Z,1.87
2019-03-15T18:18:10.437Z,1.89
2019-03-15T18:20:39.922Z,1.82
2019-03-15T18:23:09.268Z,1.75
2019-03-15T18:25:38.742Z,1.76
2019-03-15T18:28:08.241Z,1.77
2019-03-15T18:30:37.593Z,1.75
2019-03-15T18:33:07.296Z,1.74
2019-03-15T18:35:36.670Z,1.67
2019-03-15T18:38:06.193Z,1.62
2019-03-15T18:40:35.834Z,1.65
2019-03-15T18:43:05.239Z,1.66
2019-03-15T18:45:34.605Z,1.68
2019-03-15T18:48:04.007Z,1.67
2019-03-15T18:50:33.395Z,1.62
2019-03-15T18:53:02.805Z,1.66
2019-03-15T18:55:32.445Z,1.69
2019-03-15T18:58:01.807Z,1.66
2019-03-15T19:00:31.157Z,1.64
2019-03-15T19:03:00.833Z,1.61
2019-03-15T19:05:30.234Z,1.53
2019-03-15T19:07:59.707Z,1.56
2019-03-15T19:10:29.117Z,1.58
2019-03-15T19:12:58.504Z,1.60
2019-03-15T19:15:27.985Z,1.59
2019-03-15T19:17:57.403Z,1.58
2019-03-15T19:20:26.913Z,1.58
2019-03-15T19:22:56.260Z,1.60
2019-03-15T19:25:25.625Z,1.59
2019-03-15T19:27:55.134Z,1.60
2019-03-15T19:30:24.493Z,1.59
2019-03-15T19:32:53.979Z,1.59
2019-03-15T19:35:23.429Z,1.58
2019-03-15T19:37:52.819Z,1.56
2019-03-15T19:40:22.209Z,1.55
2019-03-15T19:42:51.712Z,1.48
2019-03-15T19:45:21.169Z,1.48
2019-03-15T19:47:50.618Z,1.47
2019-03-15T19:50:20.040Z,1.48
2019-03-15T19:52:49.462Z,1.51
2019-03-15T19:55:18.839Z,1.51
2019-03-15T19:57:48.403Z,1.50
2019-03-15T20:00:17.911Z,1.51
2019-03-15T20:02:48.642Z,1.47
2019-03-15T20:05:18.129Z,1.47
2019-03-15T20:07:47.677Z,1.44
2019-03-15T20:10:17.543Z,1.27
2019-03-15T20:12:46.910Z,1.21
2019-03-15T20:15:16.445Z,1.24
2019-03-15T20:17:45.886Z,1.30
2019-03-15T20:20:15.463Z,1.37
2019-03-15T20:22:44.978Z,1.36
2019-03-15T20:25:17.973Z,1.32
2019-03-15T20:27:47.435Z,1.33
2019-03-15T20:30:21.486Z,1.32
2019-03-15T20:32:48.362Z,1.36
2019-03-15T20:35:17.689Z,1.35
2019-03-15T20:37:48.519Z,1.38
2019-03-15T20:40:17.876Z,1.39
2019-03-15T20:42:47.193Z,1.40
2019-03-15T20:45:16.863Z,1.41
2019-03-15T20:47:46.264Z,1.42
2019-03-15T20:50:15.999Z,1.40
2019-03-15T20:52:45.470Z,1.37
2019-03-15T20:55:15.285Z,1.38
2019-03-15T20:57:44.853Z,1.38
2019-03-15T21:00:15.157Z,1.40
2019-03-15T21:02:44.535Z,1.40
2019-03-15T21:05:13.938Z,1.38
2019-03-15T21:07:44.173Z,1.38
2019-03-15T21:10:13.736Z,1.41
2019-03-15T21:12:45.246Z,1.42
2019-03-15T21:15:14.638Z,1.40
2019-03-15T21:17:44.044Z,1.42
2019-03-15T21:20:14.041Z,1.44
2019-03-15T21:22:43.834Z,1.43
2019-03-15T21:25:13.283Z,1.38
2019-03-15T21:27:53.016Z,1.30
2019-03-15T21:30:15.107Z,1.30
2019-03-15T21:32:44.590Z,1.35
2019-03-15T21:35:14.103Z,1.39
2019-03-15T21:37:43.502Z,1.38
2019-03-15T21:40:12.876Z,1.30
2019-03-15T21:42:42.288Z,1.27
2019-03-15T21:45:11.864Z,1.29
2019-03-15T21:47:41.295Z,1.31
2019-03-15T21:50:12.003Z,1.33
2019-03-15T21:52:41.402Z,1.27
2019-03-15T21:55:10.804Z,1.23
2019-03-15T21:57:40.251Z,1.26
2019-03-15T22:00:11.079Z,1.31
2019-03-15T22:02:40.470Z,1.31
2019-03-15T22:05:10.041Z,1.26
2019-03-15T22:07:39.528Z,1.26
2019-03-15T22:10:09.804Z,1.28
2019-03-15T22:12:39.303Z,1.30
2019-03-15T22:15:08.803Z,1.31
2019-03-15T22:17:38.402Z,1.27
2019-03-15T22:20:09.260Z,1.20
2019-03-15T22:22:38.600Z,1.20
2019-03-15T22:25:08.005Z,1.22
2019-03-15T22:27:37.509Z,1.25
2019-03-15T22:30:06.893Z,1.25
2019-03-15T22:32:36.266Z,1.24
2019-03-15T22:35:05.944Z,1.16
2019-03-15T22:37:35.311Z,1.06
2019-03-15T22:40:04.852Z,1.08
2019-03-15T22:42:34.239Z,1.12
2019-03-15T22:45:03.598Z,1.14
2019-03-15T22:47:33.043Z,1.14
2019-03-15T22:50:02.415Z,1.17
2019-03-15T22:52:31.769Z,1.14
2019-03-15T22:55:01.153Z,1.14
2019-03-15T22:57:30.513Z,1.15
2019-03-15T22:59:59.899Z,1.14
2019-03-15T23:02:29.358Z,1.12
2019-03-15T23:04:58.707Z,1.15
2019-03-15T23:07:28.094Z,1.19
2019-03-15T23:09:57.454Z,1.23
2019-03-15T23:12:26.848Z,1.23
2019-03-15T23:14:56.329Z,1.25
2019-03-15T23:17:25.738Z,1.16
2019-03-15T23:19:55.078Z,1.03
2019-03-15T23:22:24.515Z,1.07
2019-03-15T23:24:53.920Z,1.10
2019-03-15T23:27:23.381Z,1.13
2019-03-15T23:29:52.808Z,1.12
2019-03-15T23:32:22.220Z,1.10
2019-03-15T23:34:51.686Z,1.09
2019-03-15T23:37:21.256Z,1.10
2019-03-15T23:39:50.716Z,1.11
2019-03-15T23:42:20.047Z,1.13
2019-03-15T23:44:49.468Z,1.01
2019-03-15T23:47:18.852Z,0.91
2019-03-15T23:49:48.253Z,0.88
2019-03-15T23:52:17.616Z,0.91
2019-03-15T23:54:46.963Z,0.92
2019-03-15T23:57:16.335Z,0.95
2019-03-15T23:59:45.680Z,0.98
